sensor_id;sensor_type;location;lat;lon;timestamp;P1;durP1;ratioP1;P2;durP2;ratioP2
39956;SDS011;48483;44.640;7.494;2023-04-30T00:01:20;13.15;;;11.75;;
39956;SDS011;48483;44.640;7.494;2023-04-30T00:03:47;19.88;;;14.13;;
39956;SDS011;48483;44.640;7.494;2023-04-30T00:06:13;14.82;;;11.98;;
39956;SDS011;48483;44.640;7.494;2023-04-30T00:08:40;14.18;;;12.75;;
39956;SDS011;48483;44.640;7.494;2023-04-30T00:11:08;16.45;;;13.07;;
39956;SDS011;48483;44.640;7.494;2023-04-30T00:13:35;13.18;;;11.80;;
39956;SDS011;48483;44.640;7.494;2023-04-30T00:16:01;14.98;;;11.70;;
39956;SDS011;48483;44.640;7.494;2023-04-30T00:18:28;13.05;;;11.75;;
39956;SDS011;48483;44.640;7.494;2023-04-30T00:20:55;15.88;;;13.23;;
39956;SDS011;48483;44.640;7.494;2023-04-30T00:23:22;14.98;;;11.93;;
39956;SDS011;48483;44.640;7.494;2023-04-30T00:25:48;12.90;;;11.20;;
39956;SDS011;48483;44.640;7.494;2023-04-30T00:28:16;13.18;;;11.85;;
39956;SDS011;48483;44.640;7.494;2023-04-30T00:30:43;15.07;;;13.32;;
39956;SDS011;48483;44.640;7.494;2023-04-30T00:33:10;17.67;;;12.70;;
39956;SDS011;48483;44.640;7.494;2023-04-30T00:35:37;15.45;;;12.60;;
39956;SDS011;48483;44.640;7.494;2023-04-30T00:38:04;15.07;;;12.70;;
39956;SDS011;48483;44.640;7.494;2023-04-30T00:40:32;14.63;;;11.85;;
39956;SDS011;48483;44.640;7.494;2023-04-30T00:42:59;13.20;;;11.18;;
39956;SDS011;48483;44.640;7.494;2023-04-30T00:45:27;15.45;;;12.68;;
39956;SDS011;48483;44.640;7.494;2023-04-30T00:47:54;14.93;;;12.23;;
39956;SDS011;48483;44.640;7.494;2023-04-30T00:50:21;13.82;;;12.43;;
39956;SDS011;48483;44.640;7.494;2023-04-30T00:52:48;17.60;;;12.30;;
39956;SDS011;48483;44.640;7.494;2023-04-30T00:55:15;12.00;;;10.73;;
39956;SDS011;48483;44.640;7.494;2023-04-30T00:57:42;13.85;;;12.43;;
39956;SDS011;48483;44.640;7.494;2023-04-30T01:00:09;15.30;;;11.25;;
39956;SDS011;48483;44.640;7.494;2023-04-30T01:02:38;15.55;;;12.27;;
39956;SDS011;48483;44.640;7.494;2023-04-30T01:05:05;15.55;;;12.20;;
39956;SDS011;48483;44.640;7.494;2023-04-30T01:07:33;14.50;;;12.95;;
39956;SDS011;48483;44.640;7.494;2023-04-30T01:10:00;12.73;;;11.43;;
39956;SDS011;48483;44.640;7.494;2023-04-30T01:12:28;12.73;;;11.43;;
39956;SDS011;48483;44.640;7.494;2023-04-30T01:15:03;13.02;;;11.73;;
39956;SDS011;48483;44.640;7.494;2023-04-30T01:17:36;14.93;;;13.43;;
39956;SDS011;48483;44.640;7.494;2023-04-30T01:20:10;15.52;;;13.98;;
39956;SDS011;48483;44.640;7.494;2023-04-30T01:22:41;17.80;;;15.18;;
39956;SDS011;48483;44.640;7.494;2023-04-30T01:25:29;19.50;;;16.45;;
39956;SDS011;48483;44.640;7.494;2023-04-30T01:28:11;18.20;;;15.98;;
39956;SDS011;48483;44.640;7.494;2023-04-30T01:30:41;17.58;;;15.70;;
39956;SDS011;48483;44.640;7.494;2023-04-30T01:33:11;18.25;;;15.50;;
39956;SDS011;48483;44.640;7.494;2023-04-30T01:35:57;18.23;;;15.95;;
39956;SDS011;48483;44.640;7.494;2023-04-30T01:38:37;17.02;;;15.38;;
39956;SDS011;48483;44.640;7.494;2023-04-30T01:41:31;20.88;;;16.70;;
39956;SDS011;48483;44.640;7.494;2023-04-30T01:44:05;17.38;;;15.57;;
39956;SDS011;48483;44.640;7.494;2023-04-30T01:46:39;18.27;;;16.42;;
39956;SDS011;48483;44.640;7.494;2023-04-30T01:49:11;19.98;;;17.88;;
39956;SDS011;48483;44.640;7.494;2023-04-30T01:51:43;17.75;;;15.95;;
39956;SDS011;48483;44.640;7.494;2023-04-30T01:54:14;20.33;;;18.33;;
39956;SDS011;48483;44.640;7.494;2023-04-30T01:56:49;18.95;;;16.98;;
39956;SDS011;48483;44.640;7.494;2023-04-30T01:59:23;18.23;;;16.20;;
39956;SDS011;48483;44.640;7.494;2023-04-30T02:01:51;20.15;;;18.20;;
39956;SDS011;48483;44.640;7.494;2023-04-30T02:04:18;19.48;;;17.67;;
39956;SDS011;48483;44.640;7.494;2023-04-30T02:06:45;20.20;;;17.85;;
39956;SDS011;48483;44.640;7.494;2023-04-30T02:09:12;19.67;;;17.85;;
39956;SDS011;48483;44.640;7.494;2023-04-30T02:11:38;20.85;;;18.70;;
39956;SDS011;48483;44.640;7.494;2023-04-30T02:14:05;19.10;;;17.30;;
39956;SDS011;48483;44.640;7.494;2023-04-30T02:16:33;20.65;;;18.67;;
39956;SDS011;48483;44.640;7.494;2023-04-30T02:19:00;21.23;;;18.83;;
39956;SDS011;48483;44.640;7.494;2023-04-30T02:21:26;21.42;;;19.13;;
39956;SDS011;48483;44.640;7.494;2023-04-30T02:23:53;21.88;;;19.67;;
39956;SDS011;48483;44.640;7.494;2023-04-30T02:26:20;22.02;;;19.85;;
39956;SDS011;48483;44.640;7.494;2023-04-30T02:28:46;21.38;;;19.08;;
39956;SDS011;48483;44.640;7.494;2023-04-30T02:31:13;24.30;;;21.10;;
39956;SDS011;48483;44.640;7.494;2023-04-30T02:33:41;22.38;;;20.13;;
39956;SDS011;48483;44.640;7.494;2023-04-30T02:36:07;21.20;;;18.85;;
39956;SDS011;48483;44.640;7.494;2023-04-30T02:38:34;22.38;;;20.08;;
39956;SDS011;48483;44.640;7.494;2023-04-30T02:41:00;22.10;;;19.77;;
39956;SDS011;48483;44.640;7.494;2023-04-30T02:43:28;22.42;;;20.20;;
39956;SDS011;48483;44.640;7.494;2023-04-30T02:45:54;22.60;;;19.38;;
39956;SDS011;48483;44.640;7.494;2023-04-30T02:48:21;22.55;;;20.25;;
39956;SDS011;48483;44.640;7.494;2023-04-30T02:50:49;22.45;;;20.25;;
39956;SDS011;48483;44.640;7.494;2023-04-30T02:53:16;22.73;;;20.35;;
39956;SDS011;48483;44.640;7.494;2023-04-30T02:55:42;21.73;;;19.58;;
39956;SDS011;48483;44.640;7.494;2023-04-30T02:58:09;23.20;;;20.88;;
39956;SDS011;48483;44.640;7.494;2023-04-30T03:00:36;22.42;;;20.13;;
39956;SDS011;48483;44.640;7.494;2023-04-30T03:03:02;22.90;;;20.70;;
39956;SDS011;48483;44.640;7.494;2023-04-30T03:05:29;23.00;;;20.55;;
39956;SDS011;48483;44.640;7.494;2023-04-30T03:07:57;26.13;;;20.65;;
39956;SDS011;48483;44.640;7.494;2023-04-30T03:10:23;23.33;;;21.05;;
39956;SDS011;48483;44.640;7.494;2023-04-30T03:12:50;25.13;;;21.25;;
39956;SDS011;48483;44.640;7.494;2023-04-30T03:15:18;21.65;;;19.48;;
39956;SDS011;48483;44.640;7.494;2023-04-30T03:17:45;21.60;;;19.45;;
39956;SDS011;48483;44.640;7.494;2023-04-30T03:20:11;22.13;;;19.90;;
39956;SDS011;48483;44.640;7.494;2023-04-30T03:22:39;23.17;;;20.27;;
39956;SDS011;48483;44.640;7.494;2023-04-30T03:25:09;24.40;;;21.20;;
39956;SDS011;48483;44.640;7.494;2023-04-30T03:27:36;21.98;;;19.77;;
39956;SDS011;48483;44.640;7.494;2023-04-30T03:30:03;23.25;;;20.92;;
39956;SDS011;48483;44.640;7.494;2023-04-30T03:32:32;22.95;;;20.70;;
39956;SDS011;48483;44.640;7.494;2023-04-30T03:34:58;23.05;;;20.85;;
39956;SDS011;48483;44.640;7.494;2023-04-30T03:37:25;23.20;;;20.70;;
39956;SDS011;48483;44.640;7.494;2023-04-30T03:39:52;22.65;;;20.42;;
39956;SDS011;48483;44.640;7.494;2023-04-30T03:42:20;22.98;;;20.35;;
39956;SDS011;48483;44.640;7.494;2023-04-30T03:44:47;23.33;;;20.67;;
39956;SDS011;48483;44.640;7.494;2023-04-30T03:47:13;22.20;;;19.90;;
39956;SDS011;48483;44.640;7.494;2023-04-30T03:49:40;22.45;;;20.15;;
39956;SDS011;48483;44.640;7.494;2023-04-30T03:52:07;22.45;;;20.15;;
39956;SDS011;48483;44.640;7.494;2023-04-30T03:54:33;23.35;;;21.15;;
39956;SDS011;48483;44.640;7.494;2023-04-30T03:57:01;21.83;;;19.52;;
39956;SDS011;48483;44.640;7.494;2023-04-30T03:59:34;21.92;;;19.73;;
39956;SDS011;48483;44.640;7.494;2023-04-30T04:02:00;20.80;;;18.67;;
39956;SDS011;48483;44.640;7.494;2023-04-30T04:04:27;21.88;;;19.58;;
39956;SDS011;48483;44.640;7.494;2023-04-30T04:06:54;23.13;;;20.73;;
39956;SDS011;48483;44.640;7.494;2023-04-30T04:09:20;23.40;;;19.88;;
39956;SDS011;48483;44.640;7.494;2023-04-30T04:11:47;22.55;;;20.35;;
39956;SDS011;48483;44.640;7.494;2023-04-30T04:14:13;21.33;;;19.17;;
39956;SDS011;48483;44.640;7.494;2023-04-30T04:16:42;22.05;;;19.88;;
39956;SDS011;48483;44.640;7.494;2023-04-30T04:19:09;22.60;;;20.38;;
39956;SDS011;48483;44.640;7.494;2023-04-30T04:21:38;21.63;;;19.50;;
39956;SDS011;48483;44.640;7.494;2023-04-30T04:24:10;22.67;;;19.63;;
39956;SDS011;48483;44.640;7.494;2023-04-30T04:26:37;22.55;;;20.15;;
39956;SDS011;48483;44.640;7.494;2023-04-30T04:29:03;23.33;;;20.02;;
39956;SDS011;48483;44.640;7.494;2023-04-30T04:31:30;23.20;;;20.90;;
39956;SDS011;48483;44.640;7.494;2023-04-30T04:33:59;21.85;;;19.65;;
39956;SDS011;48483;44.640;7.494;2023-04-30T04:38:55;22.88;;;19.08;;
39956;SDS011;48483;44.640;7.494;2023-04-30T04:41:22;22.42;;;19.58;;
39956;SDS011;48483;44.640;7.494;2023-04-30T04:43:50;23.38;;;20.95;;
39956;SDS011;48483;44.640;7.494;2023-04-30T04:46:17;22.35;;;20.13;;
39956;SDS011;48483;44.640;7.494;2023-04-30T04:48:45;22.85;;;20.55;;
39956;SDS011;48483;44.640;7.494;2023-04-30T04:51:13;24.10;;;19.30;;
39956;SDS011;48483;44.640;7.494;2023-04-30T04:53:40;22.60;;;20.30;;
39956;SDS011;48483;44.640;7.494;2023-04-30T04:56:06;23.67;;;21.30;;
39956;SDS011;48483;44.640;7.494;2023-04-30T04:58:33;21.98;;;19.25;;
39956;SDS011;48483;44.640;7.494;2023-04-30T05:01:00;21.85;;;19.63;;
39956;SDS011;48483;44.640;7.494;2023-04-30T05:03:29;22.55;;;20.35;;
39956;SDS011;48483;44.640;7.494;2023-04-30T05:05:56;23.15;;;20.73;;
39956;SDS011;48483;44.640;7.494;2023-04-30T05:08:23;23.67;;;21.30;;
39956;SDS011;48483;44.640;7.494;2023-04-30T05:10:50;24.85;;;22.40;;
39956;SDS011;48483;44.640;7.494;2023-04-30T05:13:17;21.90;;;19.45;;
39956;SDS011;48483;44.640;7.494;2023-04-30T05:15:43;21.77;;;19.55;;
39956;SDS011;48483;44.640;7.494;2023-04-30T05:18:10;21.98;;;19.83;;
39956;SDS011;48483;44.640;7.494;2023-04-30T05:20:36;20.52;;;18.42;;
39956;SDS011;48483;44.640;7.494;2023-04-30T05:23:03;22.90;;;20.63;;
39956;SDS011;48483;44.640;7.494;2023-04-30T05:25:31;22.73;;;20.40;;
39956;SDS011;48483;44.640;7.494;2023-04-30T05:27:57;25.15;;;21.27;;
39956;SDS011;48483;44.640;7.494;2023-04-30T05:30:24;25.40;;;20.05;;
39956;SDS011;48483;44.640;7.494;2023-04-30T05:32:50;22.42;;;20.02;;
39956;SDS011;48483;44.640;7.494;2023-04-30T05:35:17;21.38;;;19.25;;
39956;SDS011;48483;44.640;7.494;2023-04-30T05:37:44;18.67;;;16.77;;
39956;SDS011;48483;44.640;7.494;2023-04-30T05:40:11;19.27;;;17.23;;
39956;SDS011;48483;44.640;7.494;2023-04-30T05:42:40;18.38;;;16.58;;
39956;SDS011;48483;44.640;7.494;2023-04-30T05:45:08;14.47;;;13.03;;
39956;SDS011;48483;44.640;7.494;2023-04-30T05:47:40;14.55;;;13.15;;
39956;SDS011;48483;44.640;7.494;2023-04-30T05:50:08;13.95;;;12.55;;
39956;SDS011;48483;44.640;7.494;2023-04-30T05:52:35;12.30;;;11.10;;
39956;SDS011;48483;44.640;7.494;2023-04-30T05:55:01;13.30;;;11.77;;
39956;SDS011;48483;44.640;7.494;2023-04-30T05:57:28;12.10;;;10.90;;
39956;SDS011;48483;44.640;7.494;2023-04-30T05:59:56;12.13;;;10.90;;
39956;SDS011;48483;44.640;7.494;2023-04-30T06:02:23;14.40;;;12.60;;
39956;SDS011;48483;44.640;7.494;2023-04-30T06:04:50;15.43;;;12.00;;
39956;SDS011;48483;44.640;7.494;2023-04-30T06:07:16;22.05;;;13.50;;
39956;SDS011;48483;44.640;7.494;2023-04-30T06:09:43;16.65;;;13.73;;
39956;SDS011;48483;44.640;7.494;2023-04-30T06:12:10;16.23;;;14.52;;
39956;SDS011;48483;44.640;7.494;2023-04-30T06:14:37;17.67;;;15.88;;
39956;SDS011;48483;44.640;7.494;2023-04-30T06:17:05;17.08;;;15.40;;
39956;SDS011;48483;44.640;7.494;2023-04-30T06:19:32;17.80;;;16.00;;
39956;SDS011;48483;44.640;7.494;2023-04-30T06:21:59;19.67;;;17.67;;
39956;SDS011;48483;44.640;7.494;2023-04-30T06:24:26;17.42;;;15.70;;
39956;SDS011;48483;44.640;7.494;2023-04-30T06:26:52;17.00;;;15.30;;
39956;SDS011;48483;44.640;7.494;2023-04-30T06:29:19;16.75;;;14.95;;
39956;SDS011;48483;44.640;7.494;2023-04-30T06:31:45;15.88;;;14.25;;
39956;SDS011;48483;44.640;7.494;2023-04-30T06:34:13;15.95;;;14.35;;
39956;SDS011;48483;44.640;7.494;2023-04-30T06:36:40;15.75;;;14.15;;
39956;SDS011;48483;44.640;7.494;2023-04-30T06:39:07;15.95;;;14.35;;
39956;SDS011;48483;44.640;7.494;2023-04-30T06:41:33;14.80;;;13.30;;
39956;SDS011;48483;44.640;7.494;2023-04-30T06:44:05;16.48;;;14.77;;
39956;SDS011;48483;44.640;7.494;2023-04-30T06:46:33;18.67;;;16.77;;
39956;SDS011;48483;44.640;7.494;2023-04-30T06:48:59;16.88;;;15.18;;
39956;SDS011;48483;44.640;7.494;2023-04-30T06:51:27;18.92;;;17.02;;
39956;SDS011;48483;44.640;7.494;2023-04-30T06:53:54;17.83;;;15.93;;
39956;SDS011;48483;44.640;7.494;2023-04-30T06:56:20;18.67;;;16.67;;
39956;SDS011;48483;44.640;7.494;2023-04-30T06:58:47;17.90;;;16.00;;
39956;SDS011;48483;44.640;7.494;2023-04-30T07:01:15;19.25;;;17.27;;
39956;SDS011;48483;44.640;7.494;2023-04-30T07:03:42;18.98;;;16.98;;
39956;SDS011;48483;44.640;7.494;2023-04-30T07:06:09;18.05;;;16.20;;
39956;SDS011;48483;44.640;7.494;2023-04-30T07:08:37;19.90;;;17.83;;
39956;SDS011;48483;44.640;7.494;2023-04-30T07:11:05;20.23;;;18.25;;
39956;SDS011;48483;44.640;7.494;2023-04-30T07:13:32;19.67;;;17.67;;
39956;SDS011;48483;44.640;7.494;2023-04-30T07:15:59;19.83;;;17.85;;
39956;SDS011;48483;44.640;7.494;2023-04-30T07:18:25;21.75;;;18.48;;
39956;SDS011;48483;44.640;7.494;2023-04-30T07:20:52;19.70;;;17.70;;
39956;SDS011;48483;44.640;7.494;2023-04-30T07:23:18;20.67;;;18.48;;
39956;SDS011;48483;44.640;7.494;2023-04-30T07:25:47;22.20;;;19.90;;
39956;SDS011;48483;44.640;7.494;2023-04-30T07:28:13;21.98;;;19.67;;
39956;SDS011;48483;44.640;7.494;2023-04-30T07:30:40;24.15;;;21.58;;
39956;SDS011;48483;44.640;7.494;2023-04-30T07:33:07;24.45;;;21.95;;
39956;SDS011;48483;44.640;7.494;2023-04-30T07:35:34;22.67;;;20.38;;
39956;SDS011;48483;44.640;7.494;2023-04-30T07:38:01;22.67;;;20.45;;
39956;SDS011;48483;44.640;7.494;2023-04-30T07:40:29;23.25;;;20.85;;
39956;SDS011;48483;44.640;7.494;2023-04-30T07:42:57;22.55;;;20.25;;
39956;SDS011;48483;44.640;7.494;2023-04-30T07:45:24;23.92;;;21.25;;
39956;SDS011;48483;44.640;7.494;2023-04-30T07:47:50;22.85;;;20.55;;
39956;SDS011;48483;44.640;7.494;2023-04-30T07:50:17;22.92;;;20.63;;
39956;SDS011;48483;44.640;7.494;2023-04-30T07:52:43;22.55;;;18.88;;
39956;SDS011;48483;44.640;7.494;2023-04-30T07:55:10;19.73;;;17.38;;
39956;SDS011;48483;44.640;7.494;2023-04-30T07:57:36;20.95;;;18.65;;
39956;SDS011;48483;44.640;7.494;2023-04-30T08:00:05;22.25;;;19.73;;
39956;SDS011;48483;44.640;7.494;2023-04-30T08:02:38;20.45;;;18.45;;
39956;SDS011;48483;44.640;7.494;2023-04-30T08:05:05;18.77;;;16.75;;
39956;SDS011;48483;44.640;7.494;2023-04-30T08:07:32;21.25;;;18.90;;
39956;SDS011;48483;44.640;7.494;2023-04-30T08:09:59;19.42;;;17.38;;
39956;SDS011;48483;44.640;7.494;2023-04-30T08:12:25;19.05;;;16.85;;
39956;SDS011;48483;44.640;7.494;2023-04-30T08:14:58;20.23;;;17.52;;
39956;SDS011;48483;44.640;7.494;2023-04-30T08:17:26;19.67;;;17.67;;
39956;SDS011;48483;44.640;7.494;2023-04-30T08:19:53;19.10;;;17.15;;
39956;SDS011;48483;44.640;7.494;2023-04-30T08:22:19;19.13;;;17.23;;
39956;SDS011;48483;44.640;7.494;2023-04-30T08:24:46;19.65;;;17.75;;
39956;SDS011;48483;44.640;7.494;2023-04-30T08:27:12;22.45;;;18.13;;
39956;SDS011;48483;44.640;7.494;2023-04-30T08:29:39;20.65;;;18.55;;
39956;SDS011;48483;44.640;7.494;2023-04-30T08:32:06;18.70;;;16.73;;
39956;SDS011;48483;44.640;7.494;2023-04-30T08:34:35;20.23;;;18.17;;
39956;SDS011;48483;44.640;7.494;2023-04-30T08:37:01;19.83;;;17.73;;
39956;SDS011;48483;44.640;7.494;2023-04-30T08:39:28;20.10;;;18.02;;
39956;SDS011;48483;44.640;7.494;2023-04-30T08:41:55;23.92;;;21.42;;
39956;SDS011;48483;44.640;7.494;2023-04-30T08:44:22;22.63;;;20.20;;
39956;SDS011;48483;44.640;7.494;2023-04-30T08:46:50;21.85;;;19.52;;
39956;SDS011;48483;44.640;7.494;2023-04-30T08:49:19;21.15;;;18.95;;
39956;SDS011;48483;44.640;7.494;2023-04-30T08:51:48;21.92;;;19.63;;
39956;SDS011;48483;44.640;7.494;2023-04-30T08:54:15;23.25;;;20.75;;
39956;SDS011;48483;44.640;7.494;2023-04-30T08:56:43;23.02;;;20.52;;
39956;SDS011;48483;44.640;7.494;2023-04-30T08:59:10;23.60;;;21.05;;
39956;SDS011;48483;44.640;7.494;2023-04-30T09:01:37;24.30;;;21.73;;
39956;SDS011;48483;44.640;7.494;2023-04-30T09:04:04;21.55;;;19.27;;
39956;SDS011;48483;44.640;7.494;2023-04-30T09:06:31;22.77;;;20.42;;
39956;SDS011;48483;44.640;7.494;2023-04-30T09:08:59;24.73;;;22.10;;
39956;SDS011;48483;44.640;7.494;2023-04-30T09:11:34;24.77;;;22.17;;
39956;SDS011;48483;44.640;7.494;2023-04-30T09:14:01;24.88;;;22.27;;
39956;SDS011;48483;44.640;7.494;2023-04-30T09:16:28;26.92;;;23.88;;
39956;SDS011;48483;44.640;7.494;2023-04-30T09:19:09;25.85;;;23.25;;
39956;SDS011;48483;44.640;7.494;2023-04-30T09:21:35;25.02;;;22.33;;
39956;SDS011;48483;44.640;7.494;2023-04-30T09:24:04;24.83;;;22.25;;
39956;SDS011;48483;44.640;7.494;2023-04-30T09:26:31;24.05;;;21.60;;
39956;SDS011;48483;44.640;7.494;2023-04-30T09:28:59;24.55;;;22.02;;
39956;SDS011;48483;44.640;7.494;2023-04-30T09:31:26;26.63;;;23.80;;
39956;SDS011;48483;44.640;7.494;2023-04-30T09:33:53;27.25;;;24.10;;
39956;SDS011;48483;44.640;7.494;2023-04-30T09:36:20;26.77;;;23.90;;
39956;SDS011;48483;44.640;7.494;2023-04-30T09:38:46;29.48;;;24.35;;
39956;SDS011;48483;44.640;7.494;2023-04-30T09:41:24;27.27;;;24.38;;
39956;SDS011;48483;44.640;7.494;2023-04-30T09:43:52;27.17;;;23.38;;
39956;SDS011;48483;44.640;7.494;2023-04-30T09:46:19;26.80;;;24.20;;
39956;SDS011;48483;44.640;7.494;2023-04-30T09:48:48;27.45;;;24.65;;
39956;SDS011;48483;44.640;7.494;2023-04-30T09:51:21;29.05;;;25.98;;
39956;SDS011;48483;44.640;7.494;2023-04-30T09:53:48;28.50;;;25.42;;
39956;SDS011;48483;44.640;7.494;2023-04-30T09:56:17;26.67;;;24.05;;
39956;SDS011;48483;44.640;7.494;2023-04-30T09:58:49;31.67;;;26.38;;
39956;SDS011;48483;44.640;7.494;2023-04-30T10:01:19;27.95;;;25.13;;
39956;SDS011;48483;44.640;7.494;2023-04-30T10:03:47;28.85;;;25.88;;
39956;SDS011;48483;44.640;7.494;2023-04-30T10:06:14;29.20;;;26.05;;
39956;SDS011;48483;44.640;7.494;2023-04-30T10:08:46;30.08;;;27.00;;
39956;SDS011;48483;44.640;7.494;2023-04-30T10:11:17;30.70;;;27.45;;
39956;SDS011;48483;44.640;7.494;2023-04-30T10:13:48;31.52;;;28.30;;
39956;SDS011;48483;44.640;7.494;2023-04-30T10:16:25;32.75;;;29.27;;
39956;SDS011;48483;44.640;7.494;2023-04-30T10:19:02;33.20;;;28.90;;
39956;SDS011;48483;44.640;7.494;2023-04-30T10:21:31;32.58;;;29.27;;
39956;SDS011;48483;44.640;7.494;2023-04-30T10:23:59;35.50;;;30.73;;
39956;SDS011;48483;44.640;7.494;2023-04-30T10:26:26;34.40;;;30.85;;
39956;SDS011;48483;44.640;7.494;2023-04-30T10:28:56;34.42;;;30.88;;
39956;SDS011;48483;44.640;7.494;2023-04-30T10:31:26;33.83;;;30.33;;
39956;SDS011;48483;44.640;7.494;2023-04-30T10:33:57;34.03;;;30.58;;
39956;SDS011;48483;44.640;7.494;2023-04-30T10:36:32;38.55;;;32.75;;
39956;SDS011;48483;44.640;7.494;2023-04-30T10:39:03;35.80;;;32.15;;
39956;SDS011;48483;44.640;7.494;2023-04-30T10:41:30;36.08;;;32.28;;
39956;SDS011;48483;44.640;7.494;2023-04-30T10:44:00;35.83;;;32.13;;
39956;SDS011;48483;44.640;7.494;2023-04-30T10:46:27;37.17;;;33.28;;
39956;SDS011;48483;44.640;7.494;2023-04-30T10:48:54;36.28;;;32.28;;
39956;SDS011;48483;44.640;7.494;2023-04-30T10:51:20;35.92;;;32.30;;
39956;SDS011;48483;44.640;7.494;2023-04-30T10:53:48;35.97;;;32.13;;
39956;SDS011;48483;44.640;7.494;2023-04-30T10:56:28;34.72;;;31.08;;
39956;SDS011;48483;44.640;7.494;2023-04-30T10:58:58;36.40;;;32.55;;
39956;SDS011;48483;44.640;7.494;2023-04-30T11:01:29;34.85;;;31.08;;
39956;SDS011;48483;44.640;7.494;2023-04-30T11:04:05;35.20;;;30.45;;
39956;SDS011;48483;44.640;7.494;2023-04-30T11:06:47;36.08;;;31.25;;
39956;SDS011;48483;44.640;7.494;2023-04-30T11:09:20;35.63;;;31.75;;
39956;SDS011;48483;44.640;7.494;2023-04-30T11:12:00;34.72;;;31.23;;
39956;SDS011;48483;44.640;7.494;2023-04-30T11:14:30;35.83;;;32.08;;
39956;SDS011;48483;44.640;7.494;2023-04-30T11:16:58;34.60;;;30.90;;
39956;SDS011;48483;44.640;7.494;2023-04-30T11:19:28;36.50;;;31.30;;
39956;SDS011;48483;44.640;7.494;2023-04-30T11:24:51;33.90;;;30.35;;
39956;SDS011;48483;44.640;7.494;2023-04-30T11:27:18;33.40;;;29.92;;
39956;SDS011;48483;44.640;7.494;2023-04-30T11:29:48;32.80;;;29.48;;
39956;SDS011;48483;44.640;7.494;2023-04-30T11:32:16;32.65;;;29.25;;
39956;SDS011;48483;44.640;7.494;2023-04-30T11:34:43;34.20;;;30.58;;
39956;SDS011;48483;44.640;7.494;2023-04-30T11:37:11;34.20;;;30.67;;
39956;SDS011;48483;44.640;7.494;2023-04-30T11:39:39;35.88;;;32.13;;
39956;SDS011;48483;44.640;7.494;2023-04-30T11:42:07;35.65;;;31.80;;
39956;SDS011;48483;44.640;7.494;2023-04-30T11:44:34;33.58;;;30.27;;
39956;SDS011;48483;44.640;7.494;2023-04-30T11:47:04;33.40;;;29.80;;
39956;SDS011;48483;44.640;7.494;2023-04-30T11:49:32;33.80;;;30.20;;
39956;SDS011;48483;44.640;7.494;2023-04-30T11:51:58;31.60;;;28.20;;
39956;SDS011;48483;44.640;7.494;2023-04-30T11:54:25;33.17;;;29.63;;
39956;SDS011;48483;44.640;7.494;2023-04-30T11:56:52;31.80;;;28.38;;
39956;SDS011;48483;44.640;7.494;2023-04-30T11:59:19;33.17;;;29.65;;
39956;SDS011;48483;44.640;7.494;2023-04-30T12:01:45;32.17;;;28.70;;
39956;SDS011;48483;44.640;7.494;2023-04-30T12:04:13;32.28;;;29.00;;
39956;SDS011;48483;44.640;7.494;2023-04-30T12:06:41;33.42;;;30.13;;
39956;SDS011;48483;44.640;7.494;2023-04-30T12:09:08;32.78;;;29.27;;
39956;SDS011;48483;44.640;7.494;2023-04-30T12:11:36;35.55;;;31.33;;
39956;SDS011;48483;44.640;7.494;2023-04-30T12:14:04;33.10;;;29.70;;
39956;SDS011;48483;44.640;7.494;2023-04-30T12:16:40;32.90;;;29.48;;
39956;SDS011;48483;44.640;7.494;2023-04-30T12:19:23;31.00;;;28.00;;
39956;SDS011;48483;44.640;7.494;2023-04-30T12:21:56;31.30;;;28.17;;
39956;SDS011;48483;44.640;7.494;2023-04-30T12:24:30;31.35;;;28.25;;
39956;SDS011;48483;44.640;7.494;2023-04-30T12:27:04;31.60;;;28.40;;
39956;SDS011;48483;44.640;7.494;2023-04-30T12:29:39;31.00;;;27.80;;
39956;SDS011;48483;44.640;7.494;2023-04-30T12:32:10;29.10;;;26.08;;
39956;SDS011;48483;44.640;7.494;2023-04-30T12:37:08;29.17;;;26.10;;
39956;SDS011;48483;44.640;7.494;2023-04-30T12:39:35;30.23;;;27.10;;
39956;SDS011;48483;44.640;7.494;2023-04-30T12:42:02;28.27;;;25.33;;
39956;SDS011;48483;44.640;7.494;2023-04-30T12:44:29;30.20;;;27.00;;
39956;SDS011;48483;44.640;7.494;2023-04-30T12:46:56;29.92;;;26.80;;
39956;SDS011;48483;44.640;7.494;2023-04-30T12:49:26;26.67;;;23.77;;
39956;SDS011;48483;44.640;7.494;2023-04-30T12:51:58;28.45;;;25.40;;
39956;SDS011;48483;44.640;7.494;2023-04-30T12:54:27;28.35;;;25.35;;
39956;SDS011;48483;44.640;7.494;2023-04-30T12:56:59;26.45;;;23.77;;
39956;SDS011;48483;44.640;7.494;2023-04-30T12:59:26;27.38;;;23.98;;
39956;SDS011;48483;44.640;7.494;2023-04-30T13:01:53;25.38;;;22.35;;
39956;SDS011;48483;44.640;7.494;2023-04-30T13:04:20;26.05;;;23.55;;
39956;SDS011;48483;44.640;7.494;2023-04-30T13:06:46;26.88;;;24.02;;
39956;SDS011;48483;44.640;7.494;2023-04-30T13:09:15;27.73;;;24.83;;
39956;SDS011;48483;44.640;7.494;2023-04-30T13:11:42;25.08;;;22.67;;
39956;SDS011;48483;44.640;7.494;2023-04-30T13:14:09;27.15;;;24.35;;
39956;SDS011;48483;44.640;7.494;2023-04-30T13:16:36;25.08;;;22.60;;
39956;SDS011;48483;44.640;7.494;2023-04-30T13:19:02;27.15;;;24.38;;
39956;SDS011;48483;44.640;7.494;2023-04-30T13:21:30;24.75;;;22.40;;
39956;SDS011;48483;44.640;7.494;2023-04-30T13:23:57;24.67;;;22.15;;
39956;SDS011;48483;44.640;7.494;2023-04-30T13:26:25;26.35;;;23.35;;
39956;SDS011;48483;44.640;7.494;2023-04-30T13:28:52;24.13;;;21.65;;
39956;SDS011;48483;44.640;7.494;2023-04-30T13:31:19;26.15;;;23.38;;
39956;SDS011;48483;44.640;7.494;2023-04-30T13:33:47;26.15;;;23.45;;
39956;SDS011;48483;44.640;7.494;2023-04-30T13:36:13;27.15;;;24.42;;
39956;SDS011;48483;44.640;7.494;2023-04-30T13:38:40;24.17;;;21.83;;
39956;SDS011;48483;44.640;7.494;2023-04-30T13:41:07;25.25;;;22.65;;
39956;SDS011;48483;44.640;7.494;2023-04-30T13:43:35;25.05;;;22.55;;
39956;SDS011;48483;44.640;7.494;2023-04-30T13:46:03;26.23;;;23.50;;
39956;SDS011;48483;44.640;7.494;2023-04-30T13:48:30;26.95;;;24.10;;
39956;SDS011;48483;44.640;7.494;2023-04-30T13:50:56;29.17;;;26.25;;
39956;SDS011;48483;44.640;7.494;2023-04-30T13:53:23;29.98;;;26.23;;
39956;SDS011;48483;44.640;7.494;2023-04-30T13:55:50;31.70;;;28.15;;
39956;SDS011;48483;44.640;7.494;2023-04-30T13:58:17;31.10;;;27.73;;
39956;SDS011;48483;44.640;7.494;2023-04-30T14:00:45;29.95;;;26.38;;
39956;SDS011;48483;44.640;7.494;2023-04-30T14:03:12;29.20;;;26.08;;
39956;SDS011;48483;44.640;7.494;2023-04-30T14:05:39;27.27;;;24.40;;
39956;SDS011;48483;44.640;7.494;2023-04-30T14:08:05;27.17;;;23.98;;
39956;SDS011;48483;44.640;7.494;2023-04-30T14:10:32;28.00;;;25.10;;
39956;SDS011;48483;44.640;7.494;2023-04-30T14:12:59;29.13;;;25.55;;
39956;SDS011;48483;44.640;7.494;2023-04-30T14:15:25;28.65;;;25.63;;
39956;SDS011;48483;44.640;7.494;2023-04-30T14:17:56;27.97;;;25.13;;
39956;SDS011;48483;44.640;7.494;2023-04-30T14:20:23;28.67;;;25.80;;
39956;SDS011;48483;44.640;7.494;2023-04-30T14:22:50;26.67;;;24.10;;
39956;SDS011;48483;44.640;7.494;2023-04-30T14:25:17;25.33;;;22.67;;
39956;SDS011;48483;44.640;7.494;2023-04-30T14:27:43;26.58;;;23.42;;
39956;SDS011;48483;44.640;7.494;2023-04-30T14:30:12;26.48;;;23.90;;
39956;SDS011;48483;44.640;7.494;2023-04-30T14:32:38;24.08;;;21.58;;
39956;SDS011;48483;44.640;7.494;2023-04-30T14:35:07;25.45;;;22.70;;